createdAt,value
2018-07-10T00:02:38.372Z,95432.00
2018-07-10T00:07:28.410Z,95420.00
2018-07-10T00:10:42.085Z,95417.00
2018-07-10T00:13:11.088Z,95421.00
2018-07-10T00:15:40.185Z,95421.00
2018-07-10T00:18:09.225Z,95423.00
2018-07-10T00:20:38.246Z,95413.00
2018-07-10T00:23:07.280Z,95411.00
2018-07-10T00:25:36.269Z,95415.00
2018-07-10T00:28:05.257Z,95415.00
2018-07-10T00:30:34.253Z,95415.00
2018-07-10T00:33:03.262Z,95404.00
2018-07-10T00:35:32.281Z,95405.00
2018-07-10T00:38:18.242Z,95411.00
2018-07-10T00:40:47.253Z,95397.00
2018-07-10T00:43:16.270Z,95396.00
2018-07-10T00:45:45.389Z,95400.00
2018-07-10T00:48:14.387Z,95394.00
2018-07-10T00:50:43.407Z,95385.00
2018-07-10T00:53:12.425Z,95405.00
2018-07-10T00:55:41.458Z,95399.00
2018-07-10T00:58:10.484Z,95404.00
2018-07-10T01:00:39.497Z,95399.00
2018-07-10T01:03:08.499Z,95388.00
2018-07-10T01:05:38.522Z,95394.00
2018-07-10T01:08:07.522Z,95397.00
2018-07-10T01:10:36.542Z,95389.00
2018-07-10T01:13:05.565Z,95381.00
2018-07-10T01:15:34.557Z,95379.00
2018-07-10T01:18:03.678Z,95380.00
2018-07-10T01:20:32.686Z,95374.00
2018-07-10T01:23:01.691Z,95371.00
2018-07-10T01:25:31.057Z,95373.00
2018-07-10T01:28:01.206Z,95360.00
2018-07-10T01:30:31.098Z,95362.00
2018-07-10T01:33:01.236Z,95362.00
2018-07-10T01:35:31.391Z,95357.00
2018-07-10T01:38:01.414Z,95361.00
2018-07-10T01:40:31.390Z,95366.00
2018-07-10T01:43:01.407Z,95366.00
2018-07-10T01:45:31.355Z,95362.00
2018-07-10T01:48:01.477Z,95361.00
2018-07-10T01:50:31.475Z,95361.00
2018-07-10T01:53:01.710Z,95375.00
2018-07-10T01:55:31.802Z,95365.00
2018-07-10T01:58:01.502Z,95371.00
2018-07-10T02:00:41.229Z,95369.00
2018-07-10T02:03:11.075Z,95359.00
2018-07-10T02:05:41.146Z,95357.00
2018-07-10T02:08:10.462Z,95365.00
2018-07-10T02:10:39.449Z,95353.00
2018-07-10T02:13:08.437Z,95347.00
2018-07-10T02:15:37.547Z,95358.00
2018-07-10T02:18:06.541Z,95352.00
2018-07-10T02:20:52.714Z,95358.00
2018-07-10T02:23:22.526Z,95345.00
2018-07-10T02:25:51.866Z,95346.00
2018-07-10T02:28:20.977Z,95345.00
2018-07-10T02:30:50.150Z,95345.00
2018-07-10T02:33:19.170Z,95338.00
2018-07-10T02:35:48.166Z,95335.00
2018-07-10T02:38:17.170Z,95336.00
2018-07-10T02:40:46.914Z,95336.00
2018-07-10T02:43:16.285Z,95336.00
2018-07-10T02:45:45.290Z,95341.00
2018-07-10T02:48:14.301Z,95326.00
2018-07-10T02:50:44.805Z,95342.00
2018-07-10T02:53:13.850Z,95326.00
2018-07-10T02:55:44.765Z,95322.00
2018-07-10T02:58:14.537Z,95334.00
2018-07-10T03:00:43.535Z,95333.00
2018-07-10T03:03:12.538Z,95330.00
2018-07-10T03:05:41.550Z,95316.00
2018-07-10T03:08:10.942Z,95319.00
2018-07-10T03:10:40.399Z,95323.00
2018-07-10T03:13:09.428Z,95329.00
2018-07-10T03:15:38.442Z,95320.00
2018-07-10T03:18:07.438Z,95321.00
2018-07-10T03:20:36.845Z,95322.00
2018-07-10T03:23:05.848Z,95318.00
2018-07-10T03:25:34.850Z,95317.00
2018-07-10T03:28:03.854Z,95320.00
2018-07-10T03:30:32.855Z,95317.00
2018-07-10T03:33:03.034Z,95315.00
2018-07-10T03:35:32.922Z,95305.00
2018-07-10T03:38:02.956Z,95307.00
2018-07-10T03:40:32.986Z,95305.00
2018-07-10T03:43:03.148Z,95317.00
2018-07-10T03:45:33.058Z,95322.00
2018-07-10T03:48:03.230Z,95322.00
2018-07-10T03:50:34.302Z,95322.00
2018-07-10T03:53:03.553Z,95323.00
2018-07-10T03:55:38.391Z,95324.00
2018-07-10T03:58:07.399Z,95323.00
2018-07-10T04:00:37.161Z,95320.00
2018-07-10T04:03:06.193Z,95316.00
2018-07-10T04:05:35.188Z,95318.00
2018-07-10T04:08:05.566Z,95320.00
2018-07-10T04:10:35.812Z,95322.00
2018-07-10T04:13:10.201Z,95331.00
2018-07-10T04:15:39.560Z,95330.00
2018-07-10T04:18:12.198Z,95335.00
2018-07-10T04:20:55.843Z,95326.00
2018-07-10T04:23:31.685Z,95318.00
2018-07-10T04:26:01.951Z,95316.00
2018-07-10T04:28:34.748Z,95313.00
2018-07-10T04:31:16.721Z,95315.00
2018-07-10T04:33:48.408Z,95335.00
2018-07-10T04:36:18.446Z,95326.00
2018-07-10T04:38:54.106Z,95316.00
2018-07-10T04:41:28.802Z,95307.00
2018-07-10T04:44:07.426Z,95317.00
2018-07-10T04:46:40.878Z,95320.00
2018-07-10T04:49:22.023Z,95323.00
2018-07-10T04:51:59.755Z,95317.00
2018-07-10T04:54:46.342Z,95318.00
2018-07-10T04:57:19.202Z,95319.00
2018-07-10T04:59:48.205Z,95324.00
2018-07-10T05:02:17.373Z,95323.00
2018-07-10T05:04:46.471Z,95300.00
2018-07-10T05:07:15.464Z,95310.00
2018-07-10T05:09:44.458Z,95310.00
2018-07-10T05:12:13.478Z,95314.00
2018-07-10T05:14:45.373Z,95309.00
2018-07-10T05:17:16.170Z,95313.00
2018-07-10T05:19:45.502Z,95317.00
2018-07-10T05:22:14.950Z,95314.00
2018-07-10T05:24:44.185Z,95302.00
2018-07-10T05:27:13.201Z,95311.00
2018-07-10T05:29:42.294Z,95303.00
2018-07-10T05:32:12.018Z,95307.00
2018-07-10T05:34:41.491Z,95311.00
2018-07-10T05:37:12.867Z,95313.00
2018-07-10T05:39:43.683Z,95308.00
2018-07-10T05:42:13.690Z,95303.00
2018-07-10T05:44:45.254Z,95312.00
2018-07-10T05:47:14.250Z,95300.00
2018-07-10T05:49:43.237Z,95298.00
2018-07-10T05:52:13.390Z,95306.00
2018-07-10T05:54:44.834Z,95307.00
2018-07-10T05:57:13.826Z,95304.00
2018-07-10T05:59:42.818Z,95313.00
2018-07-10T06:02:11.879Z,95318.00
2018-07-10T06:04:41.026Z,95319.00
2018-07-10T06:07:09.974Z,95328.00
2018-07-10T06:09:38.969Z,95324.00
2018-07-10T06:12:07.989Z,95325.00
2018-07-10T06:14:37.091Z,95334.00
2018-07-10T06:17:06.506Z,95333.00
2018-07-10T06:19:35.491Z,95335.00
2018-07-10T06:22:05.457Z,95319.00
2018-07-10T06:24:35.969Z,95326.00
2018-07-10T06:27:07.438Z,95323.00
2018-07-10T06:29:56.643Z,95321.00
2018-07-10T06:32:28.507Z,95316.00
2018-07-10T06:35:08.514Z,95323.00
2018-07-10T06:37:41.934Z,95314.00
2018-07-10T06:40:10.926Z,95309.00
2018-07-10T06:42:58.869Z,95305.00
2018-07-10T06:45:28.391Z,95302.00
2018-07-10T06:47:57.410Z,95312.00
2018-07-10T06:50:27.382Z,95317.00
2018-07-10T06:52:56.590Z,95331.00
2018-07-10T06:55:25.385Z,95325.00
2018-07-10T06:57:56.354Z,95325.00
2018-07-10T07:00:26.230Z,95322.00
2018-07-10T07:02:55.237Z,95330.00
2018-07-10T07:05:24.246Z,95327.00
2018-07-10T07:07:53.254Z,95329.00
2018-07-10T07:10:22.227Z,95327.00
2018-07-10T07:12:51.237Z,95329.00
2018-07-10T07:15:21.130Z,95327.00
2018-07-10T07:17:52.350Z,95323.00
2018-07-10T07:20:22.426Z,95321.00
2018-07-10T07:22:51.953Z,95319.00
2018-07-10T07:25:20.961Z,95318.00
2018-07-10T07:27:50.094Z,95315.00
2018-07-10T07:30:19.073Z,95324.00
2018-07-10T07:32:48.720Z,95322.00
2018-07-10T07:35:17.810Z,95316.00
2018-07-10T07:37:46.977Z,95326.00
2018-07-10T07:40:16.031Z,95333.00
2018-07-10T07:42:45.030Z,95325.00
2018-07-10T07:45:14.026Z,95313.00
2018-07-10T07:47:43.442Z,95316.00
2018-07-10T07:50:12.694Z,95319.00
2018-07-10T07:52:41.679Z,95327.00
2018-07-10T07:55:10.701Z,95314.00
2018-07-10T07:57:39.746Z,95311.00
2018-07-10T08:00:08.727Z,95319.00
2018-07-10T08:02:37.745Z,95331.00
2018-07-10T08:05:06.998Z,95324.00
2018-07-10T08:07:36.987Z,95330.00
2018-07-10T08:10:07.156Z,95330.00
2018-07-10T08:12:37.969Z,95335.00
2018-07-10T08:15:07.908Z,95338.00
2018-07-10T08:17:37.570Z,95332.00
2018-07-10T08:20:07.605Z,95330.00
2018-07-10T08:22:37.273Z,95325.00
2018-07-10T08:25:07.576Z,95326.00
2018-07-10T08:27:37.927Z,95322.00
2018-07-10T08:30:08.724Z,95332.00
2018-07-10T08:32:39.305Z,95321.00
2018-07-10T08:35:08.589Z,95323.00
2018-07-10T08:37:37.630Z,95313.00
2018-07-10T08:40:07.671Z,95324.00
2018-07-10T08:42:37.826Z,95314.00
2018-07-10T08:45:08.670Z,95314.00
2018-07-10T08:47:38.414Z,95312.00
2018-07-10T08:50:07.545Z,95320.00
2018-07-10T08:52:37.710Z,95315.00
2018-07-10T08:55:08.767Z,95315.00
2018-07-10T08:57:38.218Z,95312.00
2018-07-10T09:00:08.030Z,95317.00
2018-07-10T09:02:37.814Z,95315.00
2018-07-10T09:05:07.782Z,95309.00
2018-07-10T09:07:37.778Z,95307.00
2018-07-10T09:10:08.157Z,95309.00
2018-07-10T09:12:38.204Z,95313.00
2018-07-10T09:15:08.198Z,95312.00
2018-07-10T09:17:37.973Z,95312.00
2018-07-10T09:20:09.548Z,95318.00
2018-07-10T09:22:38.556Z,95313.00
2018-07-10T09:25:08.050Z,95316.00
2018-07-10T09:27:38.053Z,95317.00
2018-07-10T09:30:08.614Z,95315.00
2018-07-10T09:32:44.922Z,95311.00
2018-07-10T09:35:14.118Z,95300.00
2018-07-10T09:37:44.180Z,95294.00
2018-07-10T09:40:15.026Z,95296.00
2018-07-10T09:42:50.253Z,95293.00
2018-07-10T09:45:19.391Z,95302.00
2018-07-10T09:47:49.123Z,95298.00
2018-07-10T09:50:18.134Z,95300.00
2018-07-10T09:52:47.294Z,95309.00
2018-07-10T09:55:16.406Z,95301.00
2018-07-10T09:57:45.562Z,95305.00
2018-07-10T10:00:14.678Z,95305.00
2018-07-10T10:02:43.754Z,95306.00
2018-07-10T10:05:12.778Z,95305.00
2018-07-10T10:07:41.867Z,95301.00
2018-07-10T10:10:10.903Z,95304.00
2018-07-10T10:12:40.026Z,95305.00
2018-07-10T10:15:09.019Z,95312.00
2018-07-10T10:17:38.939Z,95313.00
2018-07-10T10:20:08.795Z,95314.00
2018-07-10T10:22:40.187Z,95303.00
2018-07-10T10:25:09.669Z,95304.00
2018-07-10T10:27:39.972Z,95304.00
2018-07-10T10:30:09.174Z,95307.00
2018-07-10T10:32:39.545Z,95293.00
2018-07-10T10:35:08.983Z,95301.00
2018-07-10T10:37:39.023Z,95304.00
2018-07-10T10:40:09.043Z,95301.00
2018-07-10T10:42:39.222Z,95296.00
2018-07-10T10:45:09.493Z,95294.00
2018-07-10T10:47:39.156Z,95286.00
2018-07-10T10:50:09.166Z,95277.00
2018-07-10T10:52:39.338Z,95274.00
2018-07-10T10:55:09.250Z,95275.00
2018-07-10T10:57:40.686Z,95272.00
2018-07-10T11:00:09.714Z,95271.00
2018-07-10T11:02:39.614Z,95264.00
2018-07-10T11:05:09.399Z,95264.00
2018-07-10T11:07:39.436Z,95266.00
2018-07-10T11:10:09.651Z,95250.00
2018-07-10T11:12:39.490Z,95246.00
2018-07-10T11:15:09.487Z,95249.00
2018-07-10T11:17:50.091Z,95253.00
2018-07-10T11:20:27.098Z,95254.00
2018-07-10T11:23:08.162Z,95245.00
2018-07-10T11:25:41.740Z,95248.00
2018-07-10T11:28:12.242Z,95244.00
2018-07-10T11:30:41.339Z,95252.00
2018-07-10T11:33:10.997Z,95248.00
2018-07-10T11:35:40.141Z,95249.00
2018-07-10T11:38:12.134Z,95248.00
2018-07-10T11:40:44.101Z,95251.00
2018-07-10T11:43:13.720Z,95252.00
2018-07-10T11:45:42.773Z,95243.00
2018-07-10T11:48:11.968Z,95242.00
2018-07-10T11:50:40.964Z,95245.00
2018-07-10T11:53:10.081Z,95242.00
2018-07-10T11:55:40.038Z,95240.00
2018-07-10T11:58:10.592Z,95233.00
2018-07-10T12:00:40.085Z,95235.00
2018-07-10T12:03:10.249Z,95228.00
2018-07-10T12:05:42.091Z,95236.00
2018-07-10T12:08:11.198Z,95239.00
2018-07-10T12:10:40.362Z,95232.00
2018-07-10T12:13:10.547Z,95237.00
2018-07-10T12:15:40.510Z,95238.00
2018-07-10T12:18:14.181Z,95235.00
2018-07-10T12:20:43.656Z,95230.00
2018-07-10T12:23:13.269Z,95231.00
2018-07-10T12:25:43.802Z,95213.00
2018-07-10T12:28:13.919Z,95214.00
2018-07-10T12:30:42.971Z,95197.00
2018-07-10T12:33:11.988Z,95192.00
2018-07-10T12:35:41.086Z,95191.00
2018-07-10T12:38:10.676Z,95190.00
2018-07-10T12:40:40.825Z,95197.00
2018-07-10T12:43:10.717Z,95184.00
2018-07-10T12:45:40.865Z,95184.00
2018-07-10T12:48:10.841Z,95186.00
2018-07-10T12:50:40.942Z,95182.00
2018-07-10T12:53:10.985Z,95184.00
2018-07-10T12:55:41.229Z,95173.00
2018-07-10T12:58:10.947Z,95179.00
2018-07-10T13:00:41.134Z,95184.00
2018-07-10T13:03:11.890Z,95180.00
2018-07-10T13:05:47.222Z,95171.00
2018-07-10T13:08:16.680Z,95178.00
2018-07-10T13:10:46.053Z,95170.00
2018-07-10T13:13:15.451Z,95171.00
2018-07-10T13:15:44.886Z,95173.00
2018-07-10T13:18:14.077Z,95170.00
2018-07-10T13:20:43.103Z,95175.00
2018-07-10T13:23:12.114Z,95163.00
2018-07-10T13:25:41.397Z,95165.00
2018-07-10T13:28:11.571Z,95163.00
2018-07-10T13:30:41.658Z,95159.00
2018-07-10T13:33:11.570Z,95164.00
2018-07-10T13:35:41.749Z,95149.00
2018-07-10T13:38:12.590Z,95145.00
2018-07-10T13:40:41.668Z,95155.00
2018-07-10T13:43:11.645Z,95149.00
2018-07-10T13:45:41.754Z,95153.00
2018-07-10T13:48:11.683Z,95147.00
2018-07-10T13:50:41.852Z,95157.00
2018-07-10T13:53:11.788Z,95142.00
2018-07-10T13:55:41.942Z,95154.00
2018-07-10T13:58:15.265Z,95148.00
2018-07-10T14:00:50.810Z,95140.00
2018-07-10T14:03:20.346Z,95141.00
2018-07-10T14:05:49.459Z,95122.00
2018-07-10T14:08:18.630Z,95136.00
2018-07-10T14:10:47.765Z,95127.00
2018-07-10T14:13:16.787Z,95123.00
2018-07-10T14:15:45.879Z,95113.00
2018-07-10T14:18:15.493Z,95114.00
2018-07-10T14:20:50.505Z,95116.00
2018-07-10T14:23:19.844Z,95127.00
2018-07-10T14:25:49.244Z,95125.00
2018-07-10T14:28:18.441Z,95125.00
2018-07-10T14:30:48.129Z,95130.00
2018-07-10T14:33:17.203Z,95130.00
2018-07-10T14:35:46.252Z,95143.00
2018-07-10T14:38:25.279Z,95136.00
2018-07-10T14:40:54.710Z,95141.00
2018-07-10T14:43:28.297Z,95150.00
2018-07-10T14:46:29.283Z,95161.00
2018-07-10T14:49:00.334Z,95153.00
2018-07-10T14:52:03.854Z,95163.00
2018-07-10T14:54:33.000Z,95207.00
2018-07-10T14:57:02.357Z,95282.00
2018-07-10T14:59:31.420Z,95293.00
2018-07-10T15:02:00.790Z,95311.00
2018-07-10T15:04:29.930Z,95259.00
2018-07-10T15:06:58.933Z,95252.00
2018-07-10T15:09:32.062Z,95239.00
2018-07-10T15:12:02.318Z,95228.00
2018-07-10T15:14:31.401Z,95236.00
2018-07-10T15:17:05.583Z,95247.00
2018-07-10T15:19:35.356Z,95256.00
2018-07-10T15:22:04.377Z,95256.00
2018-07-10T15:24:33.420Z,95265.00
2018-07-10T15:27:02.519Z,95262.00
2018-07-10T15:29:31.686Z,95262.00
2018-07-10T15:32:01.118Z,95268.00
2018-07-10T15:34:30.172Z,95263.00
2018-07-10T15:36:59.188Z,95264.00
2018-07-10T15:39:28.280Z,95274.00
2018-07-10T15:41:57.392Z,95275.00
2018-07-10T15:44:26.565Z,95266.00
2018-07-10T15:46:55.670Z,95265.00
2018-07-10T15:49:24.695Z,95264.00
2018-07-10T15:51:53.790Z,95238.00
2018-07-10T15:54:22.981Z,95225.00
2018-07-10T15:56:52.113Z,95231.00
2018-07-10T15:59:21.446Z,95241.00
2018-07-10T16:01:50.532Z,95242.00
2018-07-10T16:04:19.750Z,95244.00
2018-07-10T16:06:48.842Z,95251.00
2018-07-10T16:09:20.502Z,95247.00
2018-07-10T16:11:54.006Z,95254.00
2018-07-10T16:14:23.309Z,95261.00
2018-07-10T16:16:52.711Z,95265.00
2018-07-10T16:20:27.863Z,95272.00
2018-07-10T16:22:57.072Z,95272.00
2018-07-10T16:25:29.098Z,95272.00
2018-07-10T16:28:00.048Z,95281.00
2018-07-10T16:30:29.163Z,95278.00
2018-07-10T16:32:58.361Z,95279.00
2018-07-10T16:35:29.530Z,95281.00
2018-07-10T16:38:00.867Z,95279.00
2018-07-10T16:40:30.026Z,95278.00
2018-07-10T16:42:59.384Z,95282.00
2018-07-10T16:46:29.142Z,95279.00
2018-07-10T16:49:45.505Z,95271.00
2018-07-10T16:52:59.964Z,95283.00
2018-07-10T16:55:32.563Z,95286.00
2018-07-10T16:58:04.876Z,95300.00
2018-07-10T17:00:33.918Z,95296.00
2018-07-10T17:03:03.092Z,95302.00
2018-07-10T17:05:32.141Z,95303.00
2018-07-10T17:08:01.224Z,95293.00
2018-07-10T17:10:30.238Z,95297.00
2018-07-10T17:12:59.244Z,95293.00
2018-07-10T17:15:28.358Z,95304.00
2018-07-10T17:17:57.662Z,95303.00
2018-07-10T17:20:26.840Z,95309.00
2018-07-10T17:22:55.876Z,95311.00
2018-07-10T17:25:24.973Z,95314.00
2018-07-10T17:27:54.026Z,95320.00
2018-07-10T17:30:23.081Z,95304.00
2018-07-10T17:32:52.163Z,95315.00
2018-07-10T17:35:21.341Z,95307.00
2018-07-10T17:37:50.773Z,95307.00
2018-07-10T17:40:20.461Z,95316.00
2018-07-10T17:42:50.324Z,95320.00
2018-07-10T17:45:23.522Z,95316.00
2018-07-10T17:47:52.773Z,95315.00
2018-07-10T17:50:21.839Z,95326.00
2018-07-10T17:52:50.895Z,95323.00
2018-07-10T17:55:20.686Z,95321.00
2018-07-10T17:57:55.682Z,95336.00
2018-07-10T18:00:24.688Z,95320.00
2018-07-10T18:02:53.866Z,95320.00
2018-07-10T18:05:22.919Z,95332.00
2018-07-10T18:07:52.016Z,95326.00
2018-07-10T18:10:22.102Z,95325.00
2018-07-10T18:12:51.138Z,95333.00
2018-07-10T18:15:20.215Z,95328.00
2018-07-10T18:17:49.951Z,95327.00
2018-07-10T18:20:19.063Z,95329.00
2018-07-10T18:22:48.158Z,95314.00
2018-07-10T18:25:17.130Z,95321.00
2018-07-10T18:27:46.242Z,95314.00
2018-07-10T18:30:15.304Z,95326.00
2018-07-10T18:32:45.046Z,95318.00
2018-07-10T18:35:15.137Z,95324.00
2018-07-10T18:37:45.178Z,95328.00
2018-07-10T18:40:15.349Z,95324.00
2018-07-10T18:42:45.298Z,95328.00
2018-07-10T18:45:15.407Z,95319.00
2018-07-10T18:47:45.354Z,95327.00
2018-07-10T18:50:15.385Z,95324.00
2018-07-10T18:52:44.397Z,95324.00
2018-07-10T18:55:13.434Z,95326.00
2018-07-10T18:58:14.205Z,95336.00
2018-07-10T19:00:52.285Z,95335.00
2018-07-10T19:03:21.329Z,95336.00
2018-07-10T19:05:54.397Z,95348.00
2018-07-10T19:08:23.853Z,95349.00
2018-07-10T19:10:53.714Z,95350.00
2018-07-10T19:13:23.138Z,95354.00
2018-07-10T19:15:53.162Z,95364.00
2018-07-10T19:18:22.497Z,95362.00
2018-07-10T19:21:18.424Z,95359.00
2018-07-10T19:23:50.435Z,95359.00
2018-07-10T19:26:26.433Z,95355.00
2018-07-10T19:29:08.362Z,95353.00
2018-07-10T19:31:37.457Z,95364.00
2018-07-10T19:34:06.486Z,95362.00
2018-07-10T19:36:35.638Z,95365.00
2018-07-10T19:39:07.179Z,95359.00
2018-07-10T19:41:36.238Z,95357.00
2018-07-10T19:44:05.259Z,95368.00
2018-07-10T19:46:35.529Z,95371.00
2018-07-10T19:49:06.356Z,95371.00
2018-07-10T19:51:35.457Z,95365.00
2018-07-10T19:54:15.403Z,95368.00
2018-07-10T19:56:44.431Z,95371.00
2018-07-10T19:59:14.982Z,95373.00
2018-07-10T20:01:58.278Z,95362.00
2018-07-10T20:04:43.177Z,95363.00
2018-07-10T20:07:49.298Z,95355.00
2018-07-10T20:10:57.501Z,95364.00
2018-07-10T20:13:43.504Z,95371.00
2018-07-10T20:16:22.422Z,95364.00
2018-07-10T20:19:02.376Z,95367.00
2018-07-10T20:21:45.030Z,95362.00
2018-07-10T20:24:17.922Z,95365.00
2018-07-10T20:27:59.028Z,95353.00
2018-07-10T20:31:11.683Z,95363.00
2018-07-10T20:34:19.125Z,95370.00
2018-07-10T20:36:57.086Z,95359.00
2018-07-10T20:39:38.137Z,95365.00
2018-07-10T20:42:07.360Z,95350.00
2018-07-10T20:44:50.066Z,95355.00
2018-07-10T20:47:19.622Z,95352.00
2018-07-10T20:49:55.501Z,95348.00
2018-07-10T20:53:13.643Z,95357.00
2018-07-10T20:55:52.241Z,95348.00
2018-07-10T20:58:24.743Z,95349.00
2018-07-10T21:01:05.226Z,95343.00
2018-07-10T21:03:44.516Z,95336.00
2018-07-10T21:06:23.014Z,95332.00
2018-07-10T21:09:11.855Z,95330.00
2018-07-10T21:11:58.343Z,95332.00
2018-07-10T21:14:52.874Z,95329.00
2018-07-10T21:17:33.061Z,95335.00
2018-07-10T21:20:13.018Z,95329.00
2018-07-10T21:25:00.998Z,95333.00
2018-07-10T21:28:41.141Z,95324.00
2018-07-10T21:31:34.414Z,95330.00
2018-07-10T21:34:12.512Z,95321.00
2018-07-10T21:39:01.310Z,95322.00
2018-07-10T21:41:53.385Z,95327.00
2018-07-10T21:45:09.597Z,95320.00
2018-07-10T21:49:25.474Z,95315.00
2018-07-10T21:51:54.882Z,95325.00
2018-07-10T21:54:24.170Z,95319.00
2018-07-10T21:56:53.343Z,95326.00
2018-07-10T21:59:24.363Z,95328.00
2018-07-10T22:01:57.750Z,95327.00
2018-07-10T22:04:28.079Z,95323.00
2018-07-10T22:06:58.920Z,95320.00
2018-07-10T22:09:32.605Z,95333.00
2018-07-10T22:12:15.010Z,95329.00
2018-07-10T22:14:45.057Z,95324.00
2018-07-10T22:17:15.080Z,95335.00
2018-07-10T22:19:46.334Z,95322.00
2018-07-10T22:22:22.014Z,95321.00
2018-07-10T22:24:52.245Z,95307.00
2018-07-10T22:27:22.457Z,95308.00
2018-07-10T22:30:00.551Z,95304.00
2018-07-10T22:32:34.790Z,95306.00
2018-07-10T22:35:03.810Z,95311.00
2018-07-10T22:37:33.352Z,95313.00
2018-07-10T22:40:05.122Z,95317.00
2018-07-10T22:42:34.174Z,95318.00
2018-07-10T22:45:03.235Z,95317.00
2018-07-10T22:47:36.342Z,95319.00
2018-07-10T22:50:12.727Z,95326.00
2018-07-10T22:52:50.324Z,95313.00
2018-07-10T22:55:22.017Z,95309.00
2018-07-10T22:57:52.348Z,95312.00
2018-07-10T23:00:31.464Z,95312.00
2018-07-10T23:03:01.275Z,95308.00
2018-07-10T23:05:30.333Z,95313.00
2018-07-10T23:07:59.660Z,95304.00
2018-07-10T23:10:28.702Z,95291.00
2018-07-10T23:12:57.723Z,95290.00
2018-07-10T23:15:26.761Z,95291.00
2018-07-10T23:17:55.770Z,95288.00
2018-07-10T23:20:25.042Z,95292.00
2018-07-10T23:22:55.866Z,95291.00
2018-07-10T23:25:26.278Z,95289.00
2018-07-10T23:28:04.633Z,95291.00
2018-07-10T23:30:39.054Z,95289.00
2018-07-10T23:33:12.057Z,95284.00
2018-07-10T23:35:42.368Z,95282.00
2018-07-10T23:38:23.682Z,95279.00
2018-07-10T23:40:53.955Z,95269.00
2018-07-10T23:43:24.332Z,95274.00
2018-07-10T23:45:53.361Z,95282.00
2018-07-10T23:48:22.550Z,95286.00
2018-07-10T23:50:51.593Z,95269.00
2018-07-10T23:53:32.467Z,95272.00
2018-07-10T23:56:01.505Z,95263.00
2018-07-10T23:58:30.536Z,95258.00
